Aviation Digital Data Service (ADDS)

Output produced by METARs form (1006 UTC 19 November 2018)
found at http://www.aviationweather.gov/metar/data/
 
KRWF 190953Z AUTO 33007KT 10SM OVC075 M04/M06 A2999 RMK AO2 SLP171 T10391061 $
KRWF 190520Z 1906/2006 30006KT P6SM OVC050 
     FM191200 34007KT P6SM BKN030 
     FM191400 33011G19KT P6SM BKN025 
     FM192200 33010KT P6SM SCT030
       
KMSP 190953Z 00000KT 10SM OVC090 M03/M07 A2998 RMK AO2 SLP165 T10331072
KMSP 190841Z 1909/2012 VRB03KT P6SM VCSH OVC090 
     FM191200 35006KT P6SM SCT020 OVC070 
     FM191700 35010G16KT P6SM OVC020 
     FM192100 35010KT P6SM BKN035 
     FM200000 34009KT P6SM FEW030